Time;durP1;ratioP1;P1;durP2;ratioP2;P2;SDS_P1;SDS_P2;PMS_P1;PMS_P2;Temp;Humidity;BMP_temperature;BMP_pressure;BME280_temperature;BME280_humidity;BME280_pressure;Samples;Min_cycle;Max_cycle;Signal;HPM_P1;HPM_P2
2022/03/14 00:01:12;;;;;;;18.58;11.85;;;;;;;2.86;64.15;96406.28;5047988;28;20895;-47
2022/03/14 00:03:45;;;;;;;18.77;11.50;;;;;;;2.76;69.86;96407.78;5048910;28;20068;-50
2022/03/14 00:06:14;;;;;;;17.30;11.70;;;;;;;2.49;70.72;96403.41;5049419;28;20424;-50
2022/03/14 00:08:44;;;;;;;16.83;10.85;;;;;;;2.12;78.20;96400.47;5050044;28;20467;-50
2022/03/14 00:11:15;;;;;;;16.55;11.80;;;;;;;2.45;75.79;96412.34;5050367;28;20130;-47
2022/03/14 00:13:46;;;;;;;18.13;11.68;;;;;;;2.49;73.94;96415.56;5049236;28;20057;-51
2022/03/14 00:16:20;;;;;;;16.50;11.55;;;;;;;2.55;70.70;96423.00;5049877;28;20061;-48
2022/03/14 00:18:50;;;;;;;18.30;12.13;;;;;;;2.44;74.35;96409.81;5049322;28;20072;-48
2022/03/14 00:21:21;;;;;;;18.58;12.32;;;;;;;2.00;80.59;96416.84;5047485;28;20068;-49
2022/03/14 00:23:49;;;;;;;16.75;11.80;;;;;;;2.26;81.50;96425.63;5049801;28;20076;-46
2022/03/14 00:26:18;;;;;;;21.42;12.15;;;;;;;2.06;85.14;96437.25;5055994;28;20084;-51
2022/03/14 00:28:46;;;;;;;20.50;12.00;;;;;;;2.24;85.60;96435.31;5050544;28;20530;-54
2022/03/14 00:31:16;;;;;;;16.92;11.15;;;;;;;2.29;80.74;96438.47;5049554;28;20072;-52
2022/03/14 00:33:44;;;;;;;16.35;11.80;;;;;;;2.11;89.96;96440.44;5050102;28;20067;-52
2022/03/14 00:36:13;;;;;;;17.65;11.77;;;;;;;1.89;99.95;96443.50;5049391;28;20065;-52
2022/03/14 00:38:41;;;;;;;17.13;12.05;;;;;;;1.96;95.14;96445.72;5046140;28;20495;-52
2022/03/14 00:41:12;;;;;;;15.48;11.02;;;;;;;1.19;100.00;96456.22;5049445;28;20080;-53
2022/03/14 00:43:41;;;;;;;16.45;10.98;;;;;;;1.32;100.00;96464.16;5049075;28;20068;-50
2022/03/14 00:46:09;;;;;;;17.45;11.75;;;;;;;1.10;100.00;96463.69;5049432;28;20061;-52
2022/03/14 00:48:39;;;;;;;15.18;11.25;;;;;;;1.26;100.00;96482.69;5049472;28;20076;-55
2022/03/14 00:51:07;;;;;;;16.43;11.67;;;;;;;1.45;100.00;96476.47;5048955;28;20072;-49
2022/03/14 00:53:36;;;;;;;17.75;12.13;;;;;;;1.53;100.00;96472.47;5049828;28;20475;-57
2022/03/14 00:56:05;;;;;;;17.38;11.95;;;;;;;1.38;100.00;96476.81;5048581;28;20069;-52
2022/03/14 00:58:34;;;;;;;18.33;12.15;;;;;;;1.26;100.00;96474.06;5049240;28;20068;-54
2022/03/14 01:01:02;;;;;;;18.65;12.27;;;;;;;1.07;100.00;96482.06;5047086;28;20553;-52
2022/03/14 01:03:31;;;;;;;16.67;12.30;;;;;;;1.32;100.00;96479.75;5048975;28;20068;-57
2022/03/14 01:06:01;;;;;;;17.67;11.88;;;;;;;1.26;100.00;96485.28;5048561;28;20072;-51
2022/03/14 01:08:30;;;;;;;18.20;11.88;;;;;;;0.99;100.00;96487.66;5049431;28;20416;-50
2022/03/14 01:10:58;;;;;;;17.50;11.52;;;;;;;0.92;100.00;96488.94;5048718;28;20065;-48
2022/03/14 01:13:27;;;;;;;17.10;11.88;;;;;;;0.73;100.00;96470.97;5049404;28;20107;-50
2022/03/14 01:15:56;;;;;;;17.50;11.15;;;;;;;0.96;100.00;96485.25;5048782;28;20060;-48
2022/03/14 01:18:25;;;;;;;17.10;11.43;;;;;;;1.22;100.00;96480.38;5049175;28;20068;-52
2022/03/14 01:20:53;;;;;;;17.50;11.63;;;;;;;0.90;100.00;96494.22;5044731;28;20084;-52
2022/03/14 01:23:23;;;;;;;16.83;11.75;;;;;;;0.79;100.00;96494.00;5049195;28;20080;-51
2022/03/14 01:25:51;;;;;;;16.02;11.50;;;;;;;1.04;100.00;96498.66;5048765;28;20065;-52
2022/03/14 01:28:20;;;;;;;17.85;11.38;;;;;;;1.06;100.00;96509.78;5048510;28;20068;-50
2022/03/14 01:30:48;;;;;;;16.17;11.90;;;;;;;1.19;100.00;96512.53;5048263;28;20069;-50
2022/03/14 01:33:16;;;;;;;17.60;11.93;;;;;;;1.22;100.00;96512.38;5047693;28;20061;-51
2022/03/14 01:35:45;;;;;;;15.57;11.50;;;;;;;0.86;100.00;96516.09;5051389;28;20072;-52
2022/03/14 01:38:13;;;;;;;17.30;11.75;;;;;;;0.76;100.00;96525.28;5051495;28;20092;-50
2022/03/14 01:40:43;;;;;;;16.25;11.50;;;;;;;0.66;100.00;96531.91;5047515;28;20065;-53
2022/03/14 01:43:11;;;;;;;18.60;12.15;;;;;;;0.94;100.00;96536.44;5048101;28;20069;-47
2022/03/14 01:45:40;;;;;;;15.88;11.90;;;;;;;0.91;100.00;96544.38;5048321;28;20485;-52
2022/03/14 01:48:08;;;;;;;15.45;11.15;;;;;;;0.74;100.00;96550.47;5048511;28;20490;-55
2022/03/14 01:50:36;;;;;;;16.45;11.50;;;;;;;0.63;100.00;96558.00;5048404;28;20107;-47
2022/03/14 01:53:05;;;;;;;16.70;11.52;;;;;;;0.77;100.00;96557.28;5049244;28;20077;-48
2022/03/14 01:55:34;;;;;;;18.88;12.10;;;;;;;0.80;100.00;96552.75;5045649;28;20510;-52
2022/03/14 01:58:04;;;;;;;14.80;11.60;;;;;;;0.70;100.00;96555.00;5046561;28;20507;-53
2022/03/14 02:00:32;;;;;;;17.10;12.00;;;;;;;0.62;100.00;96561.50;5049799;28;20071;-48
2022/03/14 02:03:01;;;;;;;19.20;12.52;;;;;;;0.45;100.00;96562.41;5048879;28;20759;-52
2022/03/14 02:05:30;;;;;;;19.13;12.40;;;;;;;0.48;100.00;96570.00;5046463;28;20069;-49
2022/03/14 02:07:58;;;;;;;19.77;13.00;;;;;;;0.69;100.00;96571.50;5048675;28;20420;-56
2022/03/14 02:10:26;;;;;;;19.60;12.43;;;;;;;0.59;100.00;96566.88;5045377;28;20075;-54
2022/03/14 02:13:14;;;;;;;16.77;11.50;;;;;;;0.74;100.00;96578.19;5050148;28;20541;-49
2022/03/14 02:15:42;;;;;;;18.67;11.00;;;;;;;0.27;100.00;96584.94;5043035;28;20066;-52
2022/03/14 02:18:11;;;;;;;16.98;11.60;;;;;;;-0.02;100.00;96589.00;5046298;28;20064;-49
2022/03/14 02:20:40;;;;;;;18.02;11.95;;;;;;;0.09;100.00;96597.09;5047728;28;20080;-52
2022/03/14 02:23:09;;;;;;;15.87;12.27;;;;;;;0.17;100.00;96607.94;5046490;28;20056;-54
2022/03/14 02:25:37;;;;;;;19.85;12.70;;;;;;;0.10;100.00;96614.31;5047643;28;20498;-52
2022/03/14 02:28:05;;;;;;;17.70;12.32;;;;;;;0.23;100.00;96623.16;5050946;28;20470;-49
2022/03/14 02:30:33;;;;;;;20.20;12.98;;;;;;;0.49;100.00;96626.19;5049245;28;20533;-51
2022/03/14 02:33:02;;;;;;;18.17;12.50;;;;;;;0.53;100.00;96621.69;5047989;28;20069;-49
2022/03/14 02:35:30;;;;;;;17.05;12.63;;;;;;;0.47;100.00;96623.66;5048416;28;20080;-50
2022/03/14 02:38:00;;;;;;;17.02;12.13;;;;;;;0.51;100.00;96623.50;5050280;28;20064;-45
2022/03/14 02:40:28;;;;;;;18.17;12.35;;;;;;;0.77;100.00;96627.34;5047293;28;20068;-48
2022/03/14 02:42:56;;;;;;;17.83;11.80;;;;;;;0.81;100.00;96623.69;5046934;28;20037;-52
2022/03/14 02:45:25;;;;;;;18.02;11.70;;;;;;;0.98;100.00;96631.41;5045801;28;20474;-45
2022/03/14 02:47:53;;;;;;;18.75;12.27;;;;;;;0.90;100.00;96636.19;5047295;28;20088;-45
2022/03/14 02:50:21;;;;;;;20.17;12.68;;;;;;;0.83;100.00;96640.84;5048462;28;20080;-47
2022/03/14 02:52:50;;;;;;;16.80;11.77;;;;;;;0.66;100.00;96638.31;5050720;28;20526;-47
2022/03/14 02:55:21;;;;;;;18.70;12.65;;;;;;;0.62;100.00;96642.81;5046050;28;20061;-45
2022/03/14 02:57:49;;;;;;;18.90;12.68;;;;;;;0.53;100.00;96648.47;5046785;28;20463;-45
2022/03/14 03:00:17;;;;;;;23.30;13.43;;;;;;;0.54;100.00;96665.69;5046569;28;20068;-46
2022/03/14 03:02:46;;;;;;;17.85;12.80;;;;;;;0.85;100.00;96672.75;5047800;28;20056;-47
2022/03/14 03:05:14;;;;;;;22.40;13.02;;;;;;;0.89;100.00;96687.22;5048419;28;20456;-46
2022/03/14 03:07:43;;;;;;;20.80;12.20;;;;;;;1.09;100.00;96686.19;5048501;28;20057;-49
2022/03/14 03:10:12;;;;;;;18.40;13.00;;;;;;;1.32;100.00;96690.19;5046514;28;20076;-48
2022/03/14 03:12:42;;;;;;;21.50;14.95;;;;;;;1.24;100.00;96696.69;5047293;28;20068;-51
2022/03/14 03:15:15;;;;;;;18.15;13.20;;;;;;;1.09;100.00;96693.16;5046748;28;20082;-48
2022/03/14 03:17:43;;;;;;;26.73;12.90;;;;;;;0.91;100.00;96695.78;5046012;28;20087;-50
2022/03/14 03:20:12;;;;;;;21.02;13.93;;;;;;;1.05;100.00;96702.88;5047433;28;20083;-49
2022/03/14 03:22:40;;;;;;;19.90;13.40;;;;;;;0.91;100.00;96710.53;5038143;28;20079;-51
2022/03/14 03:25:09;;;;;;;22.23;13.52;;;;;;;1.43;100.00;96711.22;5048577;28;20065;-48
2022/03/14 03:27:37;;;;;;;17.13;12.48;;;;;;;1.64;100.00;96713.59;5050859;28;20114;-48
2022/03/14 03:30:07;;;;;;;19.13;13.65;;;;;;;1.69;100.00;96718.50;5050587;28;20064;-48
2022/03/14 03:32:35;;;;;;;21.67;13.00;;;;;;;1.88;100.00;96725.22;5052157;28;20092;-50
2022/03/14 03:35:04;;;;;;;18.90;13.18;;;;;;;2.01;100.00;96725.41;5054657;28;20061;-43
2022/03/14 03:37:32;;;;;;;19.20;13.68;;;;;;;2.09;100.00;96736.19;5051843;28;20069;-48
2022/03/14 03:40:01;;;;;;;16.85;12.38;;;;;;;2.20;100.00;96729.56;5050875;28;20076;-48
2022/03/14 03:42:29;;;;;;;20.55;13.30;;;;;;;2.29;100.00;96742.06;5050189;28;20068;-45
2022/03/14 03:44:57;;;;;;;17.23;12.30;;;;;;;2.31;100.00;96745.41;5051471;28;20073;-45
2022/03/14 03:47:27;;;;;;;19.83;12.40;;;;;;;2.37;100.00;96747.66;5052240;28;20089;-48
2022/03/14 03:49:55;;;;;;;21.65;12.77;;;;;;;2.46;100.00;96752.34;5046659;28;20076;-47
2022/03/14 03:52:24;;;;;;;22.58;13.02;;;;;;;2.42;100.00;96766.47;5051325;28;20068;-49
2022/03/14 03:54:52;;;;;;;22.25;12.98;;;;;;;2.51;100.00;96757.28;5051600;28;20072;-51
2022/03/14 03:57:21;;;;;;;22.75;13.45;;;;;;;2.57;100.00;96775.16;5051277;28;20076;-53
2022/03/14 03:59:49;;;;;;;18.55;12.65;;;;;;;2.70;100.00;96776.13;5051753;28;20530;-46
2022/03/14 04:02:19;;;;;;;20.13;12.98;;;;;;;2.52;100.00;96790.22;5049926;28;20107;-46
2022/03/14 04:04:50;;;;;;;21.35;13.23;;;;;;;2.63;100.00;96795.63;5050798;28;20063;-50
2022/03/14 04:07:23;;;;;;;18.88;12.82;;;;;;;2.41;100.00;96814.25;5054774;28;20073;-45
2022/03/14 04:09:55;;;;;;;15.93;11.00;;;;;;;2.75;100.00;96807.09;5050588;28;20064;-47
2022/03/14 04:12:25;;;;;;;16.13;10.45;;;;;;;3.02;100.00;96807.28;5051316;28;20065;-51
2022/03/14 04:14:56;;;;;;;14.63;10.02;;;;;;;3.26;100.00;96810.22;5050815;28;20456;-49
2022/03/14 04:17:25;;;;;;;13.60;9.40;;;;;;;3.62;100.00;96822.81;5050003;28;20435;-51
2022/03/14 04:19:57;;;;;;;14.52;9.75;;;;;;;3.94;100.00;96827.81;5050541;28;20068;-46
2022/03/14 04:22:25;;;;;;;16.30;10.75;;;;;;;4.08;100.00;96821.75;5050115;28;20069;-45
2022/03/14 04:24:53;;;;;;;15.18;9.65;;;;;;;4.25;100.00;96832.81;5049402;28;20081;-47
2022/03/14 04:27:21;;;;;;;20.20;10.43;;;;;;;4.23;100.00;96847.75;5049465;28;20072;-46
2022/03/14 04:29:50;;;;;;;16.08;10.93;;;;;;;4.25;100.00;96845.84;5047972;28;20080;-45
2022/03/14 04:32:18;;;;;;;20.10;12.20;;;;;;;4.36;100.00;96858.22;5048861;28;20073;-46
2022/03/14 04:34:46;;;;;;;19.27;11.32;;;;;;;4.39;100.00;96863.28;5049507;28;20068;-45
2022/03/14 04:37:16;;;;;;;18.40;11.65;;;;;;;4.40;100.00;96869.31;5048957;28;20083;-49
2022/03/14 04:39:44;;;;;;;18.15;11.73;;;;;;;4.36;100.00;96883.50;5049298;28;20079;-46
2022/03/14 04:42:14;;;;;;;17.05;11.43;;;;;;;4.43;100.00;96885.63;5048495;28;20071;-44
2022/03/14 04:44:43;;;;;;;21.58;12.00;;;;;;;4.55;100.00;96898.88;5050032;28;20506;-46
2022/03/14 04:47:11;;;;;;;20.38;12.35;;;;;;;4.62;100.00;96903.59;5047769;28;20088;-50
2022/03/14 04:49:40;;;;;;;17.55;11.05;;;;;;;4.68;100.00;96913.69;5049983;28;20060;-49
2022/03/14 04:52:08;;;;;;;22.08;11.88;;;;;;;4.88;100.00;96916.78;5047892;28;20064;-49
2022/03/14 04:54:38;;;;;;;20.95;12.05;;;;;;;4.84;100.00;96923.97;5050710;28;20071;-55
2022/03/14 04:57:06;;;;;;;24.48;12.45;;;;;;;4.96;100.00;96930.22;5047134;28;20065;-47
2022/03/14 04:59:34;;;;;;;21.90;12.57;;;;;;;4.96;100.00;96935.44;5050885;28;20487;-47
2022/03/14 05:02:03;;;;;;;20.42;12.48;;;;;;;4.89;100.00;96936.78;5049740;28;20551;-46
2022/03/14 05:04:31;;;;;;;22.02;12.27;;;;;;;4.84;100.00;96934.44;5050096;28;20522;-46
2022/03/14 05:07:00;;;;;;;20.35;12.63;;;;;;;4.87;100.00;96936.84;5053841;28;20072;-45
2022/03/14 05:09:28;;;;;;;21.65;12.88;;;;;;;5.12;100.00;96946.56;5049660;28;20079;-46
2022/03/14 05:11:57;;;;;;;24.88;13.07;;;;;;;5.18;100.00;96950.56;5050146;28;20527;-51
2022/03/14 05:14:26;;;;;;;23.20;13.65;;;;;;;5.24;100.00;96947.56;5050714;28;20092;-47
2022/03/14 05:16:58;;;;;;;23.70;13.55;;;;;;;5.43;100.00;96958.47;5050009;28;20069;-46
2022/03/14 05:19:26;;;;;;;22.42;13.45;;;;;;;5.52;100.00;96966.69;5049891;28;20075;-45
2022/03/14 05:21:55;;;;;;;24.85;13.73;;;;;;;5.45;100.00;96961.84;5049685;28;20064;-45
2022/03/14 05:24:23;;;;;;;19.83;12.18;;;;;;;5.37;100.00;96984.22;5050776;28;20064;-45
2022/03/14 05:26:53;;;;;;;23.02;13.38;;;;;;;5.16;100.00;96982.06;5049951;28;20575;-47
2022/03/14 05:29:23;;;;;;;23.30;13.63;;;;;;;5.02;100.00;96983.84;5043348;28;20085;-54
2022/03/14 05:31:51;;;;;;;22.95;13.10;;;;;;;5.05;100.00;96996.72;5049357;28;20068;-48
2022/03/14 05:34:20;;;;;;;24.20;14.75;;;;;;;5.31;100.00;96998.53;5049425;28;20091;-49
2022/03/14 05:36:48;;;;;;;23.83;13.63;;;;;;;5.51;100.00;96999.00;5049931;28;20076;-53
2022/03/14 05:39:16;;;;;;;27.38;14.93;;;;;;;5.69;100.00;97018.72;5049261;28;20075;-49
2022/03/14 05:41:45;;;;;;;29.13;15.52;;;;;;;5.96;100.00;97015.28;5049248;28;20069;-50
2022/03/14 05:44:13;;;;;;;26.85;14.95;;;;;;;6.17;100.00;97017.28;5049850;28;20075;-46
2022/03/14 05:46:42;;;;;;;25.70;15.18;;;;;;;6.15;100.00;97034.03;5049189;28;20069;-50
2022/03/14 05:49:11;;;;;;;27.37;16.27;;;;;;;6.28;100.00;97032.25;5048031;28;20064;-48
2022/03/14 05:51:39;;;;;;;25.80;14.77;;;;;;;6.14;100.00;97037.59;5049243;28;20077;-50
2022/03/14 05:54:08;;;;;;;27.85;15.15;;;;;;;6.06;100.00;97043.34;5049372;28;20061;-50
2022/03/14 05:56:37;;;;;;;24.10;14.68;;;;;;;5.91;100.00;97052.16;5049943;28;20541;-47
2022/03/14 05:59:07;;;;;;;24.25;14.35;;;;;;;5.99;100.00;97055.16;5049350;28;20057;-46
2022/03/14 06:01:38;;;;;;;27.70;15.60;;;;;;;6.22;100.00;97058.00;5047372;28;20531;-49
2022/03/14 06:04:08;;;;;;;28.27;14.32;;;;;;;6.37;100.00;97060.47;5047565;28;20067;-50
2022/03/14 06:06:40;;;;;;;26.40;15.77;;;;;;;6.50;100.00;97060.44;5052570;28;20104;-46
2022/03/14 06:09:08;;;;;;;25.50;15.10;;;;;;;6.62;100.00;97074.50;5048573;28;20233;-49
2022/03/14 06:11:38;;;;;;;24.33;15.00;;;;;;;6.79;100.00;97081.22;5049459;28;20107;-46
2022/03/14 06:14:07;;;;;;;32.35;16.13;;;;;;;6.83;100.00;97085.28;5048415;28;20353;-51
2022/03/14 06:16:35;;;;;;;24.58;14.52;;;;;;;6.93;100.00;97091.56;5047352;28;20068;-48
2022/03/14 06:19:03;;;;;;;24.85;15.48;;;;;;;7.05;100.00;97090.69;5048603;28;20064;-46
2022/03/14 06:21:34;;;;;;;22.27;14.15;;;;;;;7.15;100.00;97088.28;5048974;28;20072;-47
2022/03/14 06:24:03;;;;;;;25.23;14.30;;;;;;;7.19;100.00;97094.16;5039399;28;20132;-48
2022/03/14 06:26:34;;;;;;;23.60;14.57;;;;;;;7.34;100.00;97100.94;5047835;28;20067;-55
2022/03/14 06:29:03;;;;;;;21.88;13.93;;;;;;;7.41;100.00;97099.56;5048859;28;20057;-48
2022/03/14 06:31:31;;;;;;;24.75;13.43;;;;;;;7.49;100.00;97109.50;5048458;28;20075;-47
2022/03/14 06:34:00;;;;;;;25.00;14.27;;;;;;;7.73;100.00;97117.41;5049092;28;20065;-49
2022/03/14 06:36:29;;;;;;;24.85;14.57;;;;;;;7.69;100.00;97106.28;5049451;28;20068;-48
2022/03/14 06:38:59;;;;;;;29.15;15.52;;;;;;;7.79;100.00;97117.81;5048260;28;20056;-46
2022/03/14 06:41:27;;;;;;;23.85;13.77;;;;;;;7.74;100.00;97117.31;5049160;28;20068;-47
2022/03/14 06:43:57;;;;;;;25.98;15.05;;;;;;;7.77;100.00;97126.72;5048756;28;20069;-48
2022/03/14 06:46:25;;;;;;;22.13;15.18;;;;;;;7.87;100.00;97129.53;5048011;28;20068;-49
2022/03/14 06:48:53;;;;;;;21.52;13.25;;;;;;;7.78;100.00;97131.88;5048302;28;20064;-48
2022/03/14 06:51:21;;;;;;;26.38;14.82;;;;;;;7.98;100.00;97135.72;5045693;28;20499;-53
2022/03/14 06:53:50;;;;;;;22.80;14.20;;;;;;;8.02;100.00;97138.94;5047209;28;20095;-49
2022/03/14 06:56:20;;;;;;;23.50;14.13;;;;;;;8.10;100.00;97136.59;5029179;28;20565;-48
2022/03/14 06:58:48;;;;;;;;;;;;;;;8.36;100.00;97145.16;5046164;28;20492;-49
2022/03/14 07:01:18;;;;;;;18.80;12.10;;;;;;;8.47;100.00;97144.41;5048226;28;20405;-47
2022/03/14 07:03:47;;;;;;;16.35;11.23;;;;;;;8.84;100.00;97149.50;5048696;28;20462;-49
2022/03/14 07:06:15;;;;;;;15.48;10.40;;;;;;;9.16;100.00;97139.16;5051079;28;21256;-48
2022/03/14 07:08:43;;;;;;;16.38;10.43;;;;;;;9.40;100.00;97160.94;5048286;28;20480;-49
2022/03/14 07:11:11;;;;;;;54.30;11.60;;;;;;;9.43;100.00;97149.31;5048246;28;20081;-53
2022/03/14 07:13:41;;;;;;;26.17;10.00;;;;;;;9.56;100.00;97157.91;5048096;28;20068;-54
2022/03/14 07:16:09;;;;;;;12.55;8.32;;;;;;;9.50;100.00;97167.16;5047944;28;20068;-47
2022/03/14 07:18:37;;;;;;;11.80;7.25;;;;;;;9.56;100.00;97157.91;5048201;28;20065;-51
2022/03/14 07:21:06;;;;;;;20.52;8.63;;;;;;;10.00;100.00;97169.34;5045590;28;20061;-49
2022/03/14 07:23:34;;;;;;;9.35;6.60;;;;;;;10.02;100.00;97170.06;5048837;28;20084;-48
2022/03/14 07:26:02;;;;;;;8.73;6.35;;;;;;;9.99;100.00;97172.94;5047972;28;20077;-51
2022/03/14 07:28:30;;;;;;;19.65;5.80;;;;;;;10.08;100.00;97179.25;5047870;28;20095;-48
2022/03/14 07:31:00;;;;;;;13.75;6.63;;;;;;;10.41;100.00;97183.63;5047913;28;20065;-49
2022/03/14 07:33:29;;;;;;;7.30;5.13;;;;;;;10.21;100.00;97175.50;5047850;28;20065;-48
2022/03/14 07:35:57;;;;;;;7.47;5.38;;;;;;;10.20;100.00;97188.81;5050968;28;20072;-46
2022/03/14 07:38:25;;;;;;;7.35;5.70;;;;;;;10.45;100.00;97185.03;5049388;28;20095;-47
2022/03/14 07:40:53;;;;;;;6.72;4.80;;;;;;;10.44;100.00;97189.50;5047738;28;20061;-47
2022/03/14 07:43:21;;;;;;;8.60;6.47;;;;;;;10.83;100.00;97194.22;5047710;28;20131;-46
2022/03/14 07:45:50;;;;;;;19.23;6.25;;;;;;;10.97;100.00;97200.97;5047670;28;20064;-51
2022/03/14 07:48:19;;;;;;;11.07;5.93;;;;;;;11.17;100.00;97200.13;5047280;28;20096;-50
2022/03/14 07:50:48;;;;;;;6.50;5.10;;;;;;;11.09;100.00;97210.53;5047874;28;20080;-52
2022/03/14 07:53:19;;;;;;;6.22;5.22;;;;;;;11.19;100.00;97218.50;5051050;28;20106;-52
2022/03/14 07:55:47;;;;;;;5.97;4.60;;;;;;;11.32;100.00;97227.91;5047754;28;20068;-50
2022/03/14 07:58:15;;;;;;;5.05;4.32;;;;;;;11.10;100.00;97234.13;5047558;28;20073;-47
2022/03/14 08:00:44;;;;;;;4.75;3.80;;;;;;;11.12;100.00;97229.59;5047646;28;20124;-52
2022/03/14 08:03:16;;;;;;;10.50;4.72;;;;;;;11.55;100.00;97233.84;5047601;28;20064;-48
2022/03/14 08:05:47;;;;;;;3.45;3.05;;;;;;;11.69;100.00;97237.09;5049063;28;20107;-53
2022/03/14 08:08:17;;;;;;;5.40;3.35;;;;;;;11.69;100.00;97237.09;5048287;28;20092;-53
2022/03/14 08:10:46;;;;;;;4.63;2.80;;;;;;;11.09;100.00;97240.41;5041335;28;20065;-54
2022/03/14 08:13:15;;;;;;;3.75;3.20;;;;;;;10.86;100.00;97247.56;5051263;28;20061;-46
2022/03/14 08:15:43;;;;;;;3.75;3.00;;;;;;;11.07;100.00;97244.13;5051286;28;20084;-47
2022/03/14 08:18:13;;;;;;;3.88;3.00;;;;;;;11.08;100.00;97246.66;5050440;28;20064;-47
2022/03/14 08:20:41;;;;;;;6.07;3.30;;;;;;;11.41;100.00;97257.97;5051218;28;20089;-51
2022/03/14 08:23:11;;;;;;;3.30;2.78;;;;;;;11.10;100.00;97251.78;5051325;28;20087;-50
2022/03/14 08:25:39;;;;;;;3.90;2.80;;;;;;;11.21;100.00;97259.63;5051342;28;20065;-45
2022/03/14 08:28:07;;;;;;;4.93;2.60;;;;;;;11.45;100.00;97264.66;5051331;28;20065;-49
2022/03/14 08:30:36;;;;;;;4.18;2.50;;;;;;;11.48;100.00;97264.38;5050242;28;20083;-51
2022/03/14 08:33:04;;;;;;;2.78;2.35;;;;;;;11.65;100.00;97260.31;5049780;28;20065;-47
2022/03/14 08:35:34;;;;;;;7.00;2.83;;;;;;;11.88;100.00;97256.56;5050929;28;20080;-50
2022/03/14 08:38:02;;;;;;;11.17;3.00;;;;;;;11.67;100.00;97254.91;5046091;28;20063;-49
2022/03/14 08:40:32;;;;;;;3.45;2.58;;;;;;;11.77;100.00;97264.56;5066283;28;20529;-48
2022/03/14 08:43:00;;;;;;;7.57;2.58;;;;;;;11.74;100.00;97271.91;5050365;28;20060;-47
2022/03/14 08:45:28;;;;;;;2.85;2.35;;;;;;;11.44;100.00;97273.53;5050880;28;20065;-47
2022/03/14 08:47:57;;;;;;;2.50;2.20;;;;;;;11.81;100.00;97271.25;5050335;28;20080;-46
2022/03/14 08:50:25;;;;;;;3.33;2.10;;;;;;;12.72;100.00;97280.00;5048229;28;20073;-51
2022/03/14 08:52:54;;;;;;;3.15;1.83;;;;;;;12.10;100.00;97278.47;5050455;28;20062;-48
2022/03/14 08:55:22;;;;;;;1.90;1.80;;;;;;;12.25;100.00;97276.28;5054434;28;20448;-49
2022/03/14 08:57:52;;;;;;;2.00;1.90;;;;;;;12.48;100.00;97287.50;5050317;28;20507;-51
2022/03/14 09:00:21;;;;;;;2.00;1.80;;;;;;;12.12;100.00;97287.13;5049897;28;20115;-49
2022/03/14 09:02:49;;;;;;;2.25;2.00;;;;;;;12.09;100.00;97296.16;5049948;28;20076;-51
2022/03/14 09:05:18;;;;;;;2.20;2.00;;;;;;;11.98;100.00;97296.25;5051266;28;20084;-48
2022/03/14 09:07:46;;;;;;;3.00;1.90;;;;;;;11.88;100.00;97292.72;5051233;28;20071;-49
2022/03/14 09:10:15;;;;;;;2.30;2.10;;;;;;;12.02;100.00;97296.81;5050319;28;20060;-46
2022/03/14 09:12:49;;;;;;;2.15;1.95;;;;;;;12.02;100.00;97302.13;5047135;28;20034;-47
2022/03/14 09:15:20;;;;;;;2.50;2.30;;;;;;;12.08;100.00;97299.78;5048266;28;20499;-53
2022/03/14 09:17:48;;;;;;;;;;;;;;;12.23;100.00;97297.59;5050101;28;20095;-49
2022/03/14 09:20:19;;;;;;;2.63;2.10;;;;;;;12.16;100.00;97292.97;5050661;28;19956;-46
2022/03/14 09:22:47;;;;;;;3.78;2.75;;;;;;;12.46;100.00;97300.88;5049604;28;20068;-46
2022/03/14 09:25:16;;;;;;;2.80;2.50;;;;;;;12.49;100.00;97292.66;5050194;28;20061;-48
2022/03/14 09:27:45;;;;;;;4.25;2.50;;;;;;;12.48;100.00;97306.84;5049636;28;20068;-45
2022/03/14 09:30:14;;;;;;;2.72;2.40;;;;;;;12.52;100.00;97302.94;5049794;28;20438;-48
2022/03/14 09:32:44;;;;;;;3.80;2.15;;;;;;;12.46;100.00;97308.81;5049303;28;20083;-54
2022/03/14 09:35:13;;;;;;;5.82;2.10;;;;;;;12.95;100.00;97314.19;5050562;28;20060;-48
2022/03/14 09:37:42;;;;;;;4.88;2.10;;;;;;;13.10;100.00;97309.28;5053903;28;20061;-49
2022/03/14 09:40:12;;;;;;;6.13;2.08;;;;;;;12.93;100.00;97322.25;5048859;28;20447;-52
2022/03/14 09:42:42;;;;;;;1.80;1.70;;;;;;;12.90;100.00;97324.31;5043614;28;20061;-51
2022/03/14 09:45:13;;;;;;;2.33;1.95;;;;;;;13.18;100.00;97314.72;5043996;28;20079;-47
2022/03/14 09:47:42;;;;;;;;;;;;;;;12.99;100.00;97311.09;5050172;28;20077;-52
2022/03/14 09:50:13;;;;;;;1.67;1.58;;;;;;;12.74;100.00;97316.94;5049739;28;19963;-49
2022/03/14 09:52:43;;;;;;;1.80;1.40;;;;;;;12.49;100.00;97312.97;5048889;28;20061;-47
2022/03/14 09:55:12;;;;;;;2.22;1.58;;;;;;;12.89;95.15;97318.19;5053313;28;20087;-51
2022/03/14 09:57:41;;;;;;;2.17;1.70;;;;;;;13.29;100.00;97319.94;5049364;28;20060;-48
2022/03/14 10:00:13;;;;;;;1.50;1.40;;;;;;;13.37;96.76;97312.09;5045387;28;20139;-49
2022/03/14 10:02:42;;;;;;;2.15;1.48;;;;;;;13.95;97.00;97314.63;5049448;28;20083;-52
2022/03/14 10:05:13;;;;;;;4.28;1.25;;;;;;;13.71;80.83;97323.06;5049627;28;20083;-51
2022/03/14 10:07:44;;;;;;;1.58;1.20;;;;;;;13.80;87.09;97309.91;5049632;28;20095;-49
2022/03/14 10:10:14;;;;;;;1.40;1.30;;;;;;;13.81;75.80;97327.53;5047241;28;20069;-51
2022/03/14 10:12:43;;;;;;;1.48;1.38;;;;;;;14.01;89.16;97327.31;5048884;28;20064;-46
2022/03/14 10:15:12;;;;;;;2.03;1.45;;;;;;;13.92;87.84;97330.00;5049252;28;20071;-52
2022/03/14 10:17:40;;;;;;;1.50;1.40;;;;;;;13.83;96.17;97323.72;5049641;28;20088;-52
2022/03/14 10:20:09;;;;;;;1.70;1.60;;;;;;;14.20;81.05;97321.09;5048810;28;21528;-46
2022/03/14 10:22:40;;;;;;;1.42;1.33;;;;;;;13.63;93.97;97338.03;5048836;28;20546;-54
2022/03/14 10:25:10;;;;;;;1.60;1.50;;;;;;;13.93;83.69;97332.47;5048984;28;20069;-51
2022/03/14 10:27:39;;;;;;;1.40;1.30;;;;;;;14.23;74.15;97331.41;5048910;28;20769;-54
2022/03/14 10:30:22;;;;;;;1.40;1.30;;;;;;;13.94;75.44;97322.75;5048553;28;20061;-53
2022/03/14 10:32:51;;;;;;;1.40;1.30;;;;;;;14.42;75.33;97319.06;5043356;28;20511;-49
2022/03/14 10:35:20;;;;;;;1.10;1.10;;;;;;;14.69;63.46;97313.75;5048401;28;20095;-49
2022/03/14 10:37:58;;;;;;;1.30;1.20;;;;;;;14.77;67.55;97325.47;5052075;28;20065;-52
2022/03/14 10:40:31;;;;;;;1.20;1.10;;;;;;;14.79;72.03;97308.38;5048358;28;20072;-52
2022/03/14 10:43:00;;;;;;;1.33;1.23;;;;;;;14.88;63.08;97326.06;5045430;28;20075;-49
2022/03/14 10:45:31;;;;;;;1.98;1.20;;;;;;;14.87;64.84;97327.06;5048669;28;20068;-50
2022/03/14 10:48:02;;;;;;;2.72;1.30;;;;;;;15.38;61.45;97328.22;5048587;28;20083;-49
2022/03/14 10:50:31;;;;;;;;;;;;;;;15.68;57.66;97333.28;5048675;28;20104;-47
2022/03/14 10:53:07;;;;;;;1.20;1.10;;;;;;;15.88;57.80;97337.41;5048994;28;20391;-45
2022/03/14 10:55:40;;;;;;;1.27;1.17;;;;;;;15.68;56.87;97325.31;5049121;28;20072;-45
2022/03/14 10:58:13;;;;;;;1.20;1.10;;;;;;;14.94;60.68;97330.78;5041729;28;20543;-48
2022/03/14 11:00:49;;;;;;;3.80;1.17;;;;;;;15.12;55.80;97330.78;5048074;28;20061;-45
2022/03/14 11:03:22;;;;;;;1.10;1.10;;;;;;;15.29;54.79;97334.44;5048370;28;20103;-46
2022/03/14 11:05:51;;;;;;;1.70;1.10;;;;;;;14.89;59.74;97343.66;5047712;28;20523;-48
2022/03/14 11:08:35;;;;;;;1.52;1.27;;;;;;;15.30;57.26;97340.59;5051030;28;20080;-46
2022/03/14 11:11:04;;;;;;;1.17;1.10;;;;;;;15.60;55.24;97336.69;5047744;28;20075;-51
2022/03/14 11:13:38;;;;;;;1.15;1.05;;;;;;;16.08;57.78;97335.38;5048257;28;20064;-46
2022/03/14 11:16:06;;;;;;;1.20;1.10;;;;;;;15.32;55.66;97341.28;5048111;28;20083;-46
2022/03/14 11:18:37;;;;;;;1.40;1.23;;;;;;;15.43;55.99;97336.53;5047721;28;21362;-45
2022/03/14 11:21:08;;;;;;;1.17;1.10;;;;;;;15.32;59.27;97336.78;5048046;28;20075;-52
2022/03/14 11:23:37;;;;;;;1.13;1.10;;;;;;;14.59;62.97;97330.72;5048908;28;20076;-46
2022/03/14 11:26:09;;;;;;;1.30;1.20;;;;;;;14.53;61.13;97332.16;5042775;28;20738;-51
2022/03/14 11:28:41;;;;;;;1.20;1.10;;;;;;;14.38;63.16;97339.75;5044097;28;20069;-49
2022/03/14 11:31:09;;;;;;;1.40;1.30;;;;;;;15.05;58.23;97328.91;5048026;28;20071;-46